world map with LIRG marked

LIRG - Airport

This information may not be accurate or current and is not valid for navigation or flight planning. No warranty of fitness for any purpose is made or implied.

flag of Lazioflag of Italy

Donate via PayPal

Additional information is available on the NEW Great Circle Mapper

Location
City:  Guidonia, Lazio, Italy
Near (Alt.):Montecelio, Rome, Roma
Name:Guidonia Alfredo Barbieri Airport
ICAO:LIRG

Details
Type:Airport (Aerodrome, Airfield)
Use:Military
Latitude:41°59'25"N (41.990278)
Longitude:12°44'27"E (12.740833)
Datum:WGS 1984
Elevation:289 ft (88 m)
Runways:2
Longest:4797 × 98 ft (1462 × 30 m)

Time
Timezone:UTC+1 (DST+4)
Local Time:

Weather
METAR:LIRG  041355Z 03012KT 9999 FEW035 15/02 Q1015 RMK BKN BKN200 MON NE LIB NC VIS MIN 9999 BLU
TAF:LIRG  (expired)

Related Locations
Nearby:
Farthest:CHT: 11957 mi / 19243 km
Waitangi [Tuuta], CIT, NZ

Find:

   beyond  
but within

Other Information
Maps:
Sources:

  


 


Great Circle Mapper   Great Circle Mapper
Great Circle Mapper FAQ   Great Circle Mapper FAQ
  Karl's Home Page
KLSē   KLSē Home
   GC on Facebook
Airlines of the World   Airlines of the World
Donate via PayPal


Copyright © 2004-2019, Karl L. Swartz. All rights reserved.
All trademarks mentioned herein belong to their respective owners.

Please see credits for attribution and copyright information.

Karl Swartz <karl@kls2.com>
  Powered by FreeBSD
Valid HTML 4.01!
Labeled with ICRA
hCard Microformat
Geo Microformat